sensor_id;sensor_type;location;lat;lon;timestamp;P1;durP1;ratioP1;P2;durP2;ratioP2
76978;SDS011;65911;47.502;19.148;2022-12-18T00:02:59;18.20;;;10.63;;
76978;SDS011;65911;47.502;19.148;2022-12-18T00:06:01;17.73;;;10.73;;
76978;SDS011;65911;47.502;19.148;2022-12-18T00:09:03;19.15;;;10.98;;
76978;SDS011;65911;47.502;19.148;2022-12-18T00:12:06;19.27;;;10.63;;
76978;SDS011;65911;47.502;19.148;2022-12-18T00:15:16;17.50;;;10.33;;
76978;SDS011;65911;47.502;19.148;2022-12-18T00:18:18;19.90;;;11.30;;
76978;SDS011;65911;47.502;19.148;2022-12-18T00:21:21;19.95;;;11.23;;
76978;SDS011;65911;47.502;19.148;2022-12-18T00:24:23;17.73;;;10.47;;
76978;SDS011;65911;47.502;19.148;2022-12-18T00:27:25;17.38;;;10.48;;
76978;SDS011;65911;47.502;19.148;2022-12-18T00:30:27;18.23;;;10.40;;
76978;SDS011;65911;47.502;19.148;2022-12-18T00:33:30;17.73;;;10.25;;
76978;SDS011;65911;47.502;19.148;2022-12-18T00:36:33;18.48;;;10.20;;
76978;SDS011;65911;47.502;19.148;2022-12-18T00:39:35;17.33;;;10.15;;
76978;SDS011;65911;47.502;19.148;2022-12-18T00:42:38;17.00;;;10.23;;
76978;SDS011;65911;47.502;19.148;2022-12-18T00:45:58;18.83;;;10.23;;
76978;SDS011;65911;47.502;19.148;2022-12-18T00:49:00;18.58;;;11.05;;
76978;SDS011;65911;47.502;19.148;2022-12-18T00:52:02;18.10;;;10.27;;
76978;SDS011;65911;47.502;19.148;2022-12-18T00:55:04;17.30;;;9.67;;
76978;SDS011;65911;47.502;19.148;2022-12-18T00:58:08;16.77;;;9.93;;
76978;SDS011;65911;47.502;19.148;2022-12-18T01:01:10;17.70;;;9.85;;
76978;SDS011;65911;47.502;19.148;2022-12-18T01:04:13;17.90;;;10.57;;
76978;SDS011;65911;47.502;19.148;2022-12-18T01:07:15;18.08;;;10.63;;
76978;SDS011;65911;47.502;19.148;2022-12-18T01:10:18;18.75;;;10.18;;
76978;SDS011;65911;47.502;19.148;2022-12-18T01:13:20;17.15;;;9.88;;
76978;SDS011;65911;47.502;19.148;2022-12-18T01:16:24;16.30;;;9.67;;
76978;SDS011;65911;47.502;19.148;2022-12-18T01:19:26;16.40;;;9.55;;
76978;SDS011;65911;47.502;19.148;2022-12-18T01:22:29;16.98;;;10.35;;
76978;SDS011;65911;47.502;19.148;2022-12-18T01:25:31;17.77;;;10.23;;
76978;SDS011;65911;47.502;19.148;2022-12-18T01:28:33;17.17;;;10.40;;
76978;SDS011;65911;47.502;19.148;2022-12-18T01:31:36;16.33;;;9.73;;
76978;SDS011;65911;47.502;19.148;2022-12-18T01:34:38;16.23;;;9.80;;
76978;SDS011;65911;47.502;19.148;2022-12-18T01:37:40;16.58;;;9.82;;
76978;SDS011;65911;47.502;19.148;2022-12-18T01:40:43;17.40;;;10.20;;
76978;SDS011;65911;47.502;19.148;2022-12-18T01:43:53;17.67;;;10.27;;
76978;SDS011;65911;47.502;19.148;2022-12-18T01:46:56;17.07;;;9.27;;
76978;SDS011;65911;47.502;19.148;2022-12-18T01:49:59;15.32;;;9.73;;
76978;SDS011;65911;47.502;19.148;2022-12-18T01:53:12;16.80;;;9.98;;
76978;SDS011;65911;47.502;19.148;2022-12-18T01:56:19;16.93;;;9.67;;
76978;SDS011;65911;47.502;19.148;2022-12-18T01:59:23;17.10;;;10.23;;
76978;SDS011;65911;47.502;19.148;2022-12-18T02:02:25;17.38;;;9.90;;
76978;SDS011;65911;47.502;19.148;2022-12-18T02:09:08;14.68;;;9.25;;
76978;SDS011;65911;47.502;19.148;2022-12-18T02:12:24;17.23;;;9.80;;
76978;SDS011;65911;47.502;19.148;2022-12-18T02:15:31;16.40;;;10.00;;
76978;SDS011;65911;47.502;19.148;2022-12-18T02:18:38;16.17;;;9.73;;
76978;SDS011;65911;47.502;19.148;2022-12-18T02:21:47;18.88;;;10.13;;
76978;SDS011;65911;47.502;19.148;2022-12-18T02:28:21;16.37;;;10.10;;
76978;SDS011;65911;47.502;19.148;2022-12-18T02:31:31;16.80;;;9.88;;
76978;SDS011;65911;47.502;19.148;2022-12-18T02:34:38;17.45;;;10.07;;
76978;SDS011;65911;47.502;19.148;2022-12-18T02:37:46;17.45;;;10.40;;
76978;SDS011;65911;47.502;19.148;2022-12-18T02:40:49;16.52;;;9.98;;
76978;SDS011;65911;47.502;19.148;2022-12-18T02:43:57;18.40;;;10.30;;
76978;SDS011;65911;47.502;19.148;2022-12-18T02:47:01;16.63;;;10.13;;
76978;SDS011;65911;47.502;19.148;2022-12-18T02:50:10;16.10;;;9.60;;
76978;SDS011;65911;47.502;19.148;2022-12-18T02:53:22;15.73;;;9.70;;
76978;SDS011;65911;47.502;19.148;2022-12-18T02:56:30;16.35;;;9.60;;
76978;SDS011;65911;47.502;19.148;2022-12-18T02:59:44;16.80;;;10.23;;
76978;SDS011;65911;47.502;19.148;2022-12-18T03:03:07;18.13;;;10.30;;
76978;SDS011;65911;47.502;19.148;2022-12-18T03:06:18;17.10;;;10.25;;
76978;SDS011;65911;47.502;19.148;2022-12-18T03:09:29;16.88;;;9.82;;
76978;SDS011;65911;47.502;19.148;2022-12-18T03:12:36;16.58;;;10.27;;
76978;SDS011;65911;47.502;19.148;2022-12-18T03:15:50;17.60;;;9.82;;
76978;SDS011;65911;47.502;19.148;2022-12-18T03:18:56;15.68;;;9.55;;
76978;SDS011;65911;47.502;19.148;2022-12-18T03:22:02;14.83;;;8.77;;
76978;SDS011;65911;47.502;19.148;2022-12-18T03:25:14;17.25;;;10.07;;
76978;SDS011;65911;47.502;19.148;2022-12-18T03:28:20;16.38;;;9.32;;
76978;SDS011;65911;47.502;19.148;2022-12-18T03:31:29;15.60;;;8.90;;
76978;SDS011;65911;47.502;19.148;2022-12-18T03:34:33;15.85;;;9.18;;
76978;SDS011;65911;47.502;19.148;2022-12-18T03:37:40;16.35;;;9.63;;
76978;SDS011;65911;47.502;19.148;2022-12-18T03:47:16;16.25;;;9.95;;
76978;SDS011;65911;47.502;19.148;2022-12-18T03:50:36;16.83;;;9.80;;
76978;SDS011;65911;47.502;19.148;2022-12-18T03:53:58;15.27;;;9.20;;
76978;SDS011;65911;47.502;19.148;2022-12-18T03:57:19;15.02;;;9.57;;
76978;SDS011;65911;47.502;19.148;2022-12-18T04:00:25;16.67;;;9.88;;
76978;SDS011;65911;47.502;19.148;2022-12-18T04:03:36;16.07;;;9.93;;
76978;SDS011;65911;47.502;19.148;2022-12-18T04:06:41;14.93;;;9.77;;
76978;SDS011;65911;47.502;19.148;2022-12-18T04:09:46;16.85;;;9.70;;
76978;SDS011;65911;47.502;19.148;2022-12-18T04:12:50;16.90;;;10.07;;
76978;SDS011;65911;47.502;19.148;2022-12-18T04:15:53;17.98;;;10.18;;
76978;SDS011;65911;47.502;19.148;2022-12-18T04:18:57;16.00;;;9.73;;
76978;SDS011;65911;47.502;19.148;2022-12-18T04:22:01;16.17;;;9.80;;
76978;SDS011;65911;47.502;19.148;2022-12-18T04:25:08;15.00;;;9.93;;
76978;SDS011;65911;47.502;19.148;2022-12-18T04:28:23;16.30;;;9.57;;
76978;SDS011;65911;47.502;19.148;2022-12-18T04:31:26;16.17;;;9.90;;
76978;SDS011;65911;47.502;19.148;2022-12-18T04:34:29;16.93;;;10.27;;
76978;SDS011;65911;47.502;19.148;2022-12-18T04:37:32;15.68;;;9.48;;
76978;SDS011;65911;47.502;19.148;2022-12-18T04:40:34;16.35;;;9.45;;
76978;SDS011;65911;47.502;19.148;2022-12-18T04:43:40;16.65;;;9.43;;
76978;SDS011;65911;47.502;19.148;2022-12-18T04:46:42;17.10;;;10.00;;
76978;SDS011;65911;47.502;19.148;2022-12-18T04:49:45;15.98;;;9.05;;
76978;SDS011;65911;47.502;19.148;2022-12-18T04:52:47;15.70;;;9.52;;
76978;SDS011;65911;47.502;19.148;2022-12-18T04:55:49;16.87;;;9.67;;
76978;SDS011;65911;47.502;19.148;2022-12-18T04:58:53;15.88;;;9.80;;
76978;SDS011;65911;47.502;19.148;2022-12-18T05:01:55;15.13;;;9.02;;
76978;SDS011;65911;47.502;19.148;2022-12-18T05:04:57;17.13;;;10.23;;
76978;SDS011;65911;47.502;19.148;2022-12-18T05:07:59;16.83;;;9.70;;
76978;SDS011;65911;47.502;19.148;2022-12-18T05:11:03;16.08;;;9.10;;
76978;SDS011;65911;47.502;19.148;2022-12-18T05:14:13;16.35;;;9.88;;
76978;SDS011;65911;47.502;19.148;2022-12-18T05:17:15;16.58;;;9.20;;
76978;SDS011;65911;47.502;19.148;2022-12-18T05:20:17;16.08;;;9.25;;
76978;SDS011;65911;47.502;19.148;2022-12-18T05:23:20;17.73;;;9.65;;
76978;SDS011;65911;47.502;19.148;2022-12-18T05:26:23;15.43;;;9.07;;
76978;SDS011;65911;47.502;19.148;2022-12-18T05:29:25;16.73;;;9.48;;
76978;SDS011;65911;47.502;19.148;2022-12-18T05:32:27;15.52;;;9.15;;
76978;SDS011;65911;47.502;19.148;2022-12-18T05:35:29;15.73;;;9.47;;
76978;SDS011;65911;47.502;19.148;2022-12-18T05:38:33;15.85;;;9.63;;
76978;SDS011;65911;47.502;19.148;2022-12-18T05:41:36;15.52;;;9.68;;
76978;SDS011;65911;47.502;19.148;2022-12-18T05:44:38;16.58;;;10.05;;
76978;SDS011;65911;47.502;19.148;2022-12-18T05:47:40;17.27;;;9.65;;
76978;SDS011;65911;47.502;19.148;2022-12-18T05:50:43;15.38;;;9.32;;
76978;SDS011;65911;47.502;19.148;2022-12-18T05:53:47;16.20;;;9.63;;
76978;SDS011;65911;47.502;19.148;2022-12-18T05:56:50;14.27;;;8.63;;
76978;SDS011;65911;47.502;19.148;2022-12-18T05:59:52;16.13;;;9.00;;
76978;SDS011;65911;47.502;19.148;2022-12-18T06:02:54;17.15;;;9.43;;
76978;SDS011;65911;47.502;19.148;2022-12-18T06:05:56;15.07;;;9.40;;
76978;SDS011;65911;47.502;19.148;2022-12-18T06:08:58;16.25;;;8.93;;
76978;SDS011;65911;47.502;19.148;2022-12-18T06:12:00;14.18;;;9.20;;
76978;SDS011;65911;47.502;19.148;2022-12-18T06:15:03;16.58;;;9.75;;
76978;SDS011;65911;47.502;19.148;2022-12-18T06:18:05;16.50;;;9.73;;
76978;SDS011;65911;47.502;19.148;2022-12-18T06:21:07;16.10;;;9.88;;
76978;SDS011;65911;47.502;19.148;2022-12-18T06:24:10;15.55;;;9.77;;
76978;SDS011;65911;47.502;19.148;2022-12-18T06:27:12;15.80;;;9.47;;
76978;SDS011;65911;47.502;19.148;2022-12-18T06:30:14;16.80;;;10.15;;
76978;SDS011;65911;47.502;19.148;2022-12-18T06:33:16;16.02;;;9.15;;
76978;SDS011;65911;47.502;19.148;2022-12-18T06:36:19;15.67;;;10.00;;
76978;SDS011;65911;47.502;19.148;2022-12-18T06:39:22;15.15;;;9.52;;
76978;SDS011;65911;47.502;19.148;2022-12-18T06:42:24;15.18;;;9.52;;
76978;SDS011;65911;47.502;19.148;2022-12-18T06:45:27;15.32;;;9.75;;
76978;SDS011;65911;47.502;19.148;2022-12-18T06:48:29;16.27;;;10.05;;
76978;SDS011;65911;47.502;19.148;2022-12-18T06:51:31;18.52;;;9.27;;
76978;SDS011;65911;47.502;19.148;2022-12-18T06:54:34;16.77;;;9.52;;
76978;SDS011;65911;47.502;19.148;2022-12-18T06:57:36;15.77;;;9.37;;
76978;SDS011;65911;47.502;19.148;2022-12-18T07:00:39;15.88;;;9.82;;
76978;SDS011;65911;47.502;19.148;2022-12-18T07:03:41;16.88;;;9.35;;
76978;SDS011;65911;47.502;19.148;2022-12-18T07:06:45;16.37;;;9.53;;
76978;SDS011;65911;47.502;19.148;2022-12-18T07:09:49;14.25;;;8.68;;
76978;SDS011;65911;47.502;19.148;2022-12-18T07:12:51;16.35;;;9.65;;
76978;SDS011;65911;47.502;19.148;2022-12-18T07:15:53;14.27;;;9.18;;
76978;SDS011;65911;47.502;19.148;2022-12-18T07:18:56;17.02;;;9.65;;
76978;SDS011;65911;47.502;19.148;2022-12-18T07:21:58;15.73;;;9.15;;
76978;SDS011;65911;47.502;19.148;2022-12-18T07:25:00;15.98;;;9.43;;
76978;SDS011;65911;47.502;19.148;2022-12-18T07:28:03;15.77;;;9.57;;
76978;SDS011;65911;47.502;19.148;2022-12-18T07:31:06;14.43;;;9.50;;
76978;SDS011;65911;47.502;19.148;2022-12-18T07:34:13;14.88;;;9.45;;
76978;SDS011;65911;47.502;19.148;2022-12-18T07:37:16;17.93;;;9.60;;
76978;SDS011;65911;47.502;19.148;2022-12-18T07:40:19;16.25;;;9.75;;
76978;SDS011;65911;47.502;19.148;2022-12-18T07:43:21;15.20;;;9.57;;
76978;SDS011;65911;47.502;19.148;2022-12-18T07:46:24;15.88;;;9.90;;
76978;SDS011;65911;47.502;19.148;2022-12-18T07:49:26;13.88;;;9.55;;
76978;SDS011;65911;47.502;19.148;2022-12-18T07:52:28;14.43;;;9.10;;
76978;SDS011;65911;47.502;19.148;2022-12-18T07:55:31;16.15;;;9.57;;
76978;SDS011;65911;47.502;19.148;2022-12-18T07:58:53;16.93;;;10.13;;
76978;SDS011;65911;47.502;19.148;2022-12-18T08:01:56;16.95;;;9.88;;
76978;SDS011;65911;47.502;19.148;2022-12-18T08:04:58;16.48;;;9.63;;
76978;SDS011;65911;47.502;19.148;2022-12-18T08:08:00;16.80;;;9.93;;
76978;SDS011;65911;47.502;19.148;2022-12-18T08:11:02;16.42;;;9.68;;
76978;SDS011;65911;47.502;19.148;2022-12-18T08:14:04;16.60;;;9.65;;
76978;SDS011;65911;47.502;19.148;2022-12-18T08:17:06;16.27;;;9.68;;
76978;SDS011;65911;47.502;19.148;2022-12-18T08:20:09;14.95;;;9.85;;
76978;SDS011;65911;47.502;19.148;2022-12-18T08:23:11;15.75;;;9.70;;
76978;SDS011;65911;47.502;19.148;2022-12-18T08:26:13;17.75;;;10.13;;
76978;SDS011;65911;47.502;19.148;2022-12-18T08:29:15;15.53;;;9.40;;
76978;SDS011;65911;47.502;19.148;2022-12-18T08:32:22;14.05;;;9.55;;
76978;SDS011;65911;47.502;19.148;2022-12-18T08:35:25;16.92;;;10.43;;
76978;SDS011;65911;47.502;19.148;2022-12-18T08:38:32;18.27;;;10.40;;
76978;SDS011;65911;47.502;19.148;2022-12-18T08:41:34;15.93;;;10.02;;
76978;SDS011;65911;47.502;19.148;2022-12-18T08:44:37;15.52;;;9.93;;
76978;SDS011;65911;47.502;19.148;2022-12-18T08:47:39;16.67;;;10.10;;
76978;SDS011;65911;47.502;19.148;2022-12-18T08:50:41;17.40;;;10.60;;
76978;SDS011;65911;47.502;19.148;2022-12-18T08:53:43;17.83;;;9.98;;
76978;SDS011;65911;47.502;19.148;2022-12-18T08:56:49;16.70;;;9.77;;
76978;SDS011;65911;47.502;19.148;2022-12-18T08:59:51;15.57;;;9.60;;
76978;SDS011;65911;47.502;19.148;2022-12-18T09:02:53;15.38;;;9.20;;
76978;SDS011;65911;47.502;19.148;2022-12-18T09:05:55;14.90;;;9.60;;
76978;SDS011;65911;47.502;19.148;2022-12-18T09:08:58;17.60;;;10.20;;
76978;SDS011;65911;47.502;19.148;2022-12-18T09:12:01;17.65;;;10.07;;
76978;SDS011;65911;47.502;19.148;2022-12-18T09:15:03;15.75;;;9.60;;
76978;SDS011;65911;47.502;19.148;2022-12-18T09:18:05;16.27;;;9.88;;
76978;SDS011;65911;47.502;19.148;2022-12-18T09:21:15;18.10;;;11.05;;
76978;SDS011;65911;47.502;19.148;2022-12-18T09:24:21;16.98;;;9.90;;
76978;SDS011;65911;47.502;19.148;2022-12-18T09:27:23;15.82;;;9.73;;
76978;SDS011;65911;47.502;19.148;2022-12-18T09:30:25;17.27;;;10.03;;
76978;SDS011;65911;47.502;19.148;2022-12-18T09:33:28;18.30;;;10.27;;
76978;SDS011;65911;47.502;19.148;2022-12-18T09:36:30;15.98;;;9.80;;
76978;SDS011;65911;47.502;19.148;2022-12-18T09:39:32;16.27;;;10.13;;
76978;SDS011;65911;47.502;19.148;2022-12-18T09:42:37;16.80;;;9.85;;
76978;SDS011;65911;47.502;19.148;2022-12-18T09:45:43;16.95;;;10.27;;
76978;SDS011;65911;47.502;19.148;2022-12-18T09:48:49;19.23;;;10.75;;
76978;SDS011;65911;47.502;19.148;2022-12-18T09:51:53;17.67;;;10.35;;
76978;SDS011;65911;47.502;19.148;2022-12-18T09:55:08;17.88;;;10.65;;
76978;SDS011;65911;47.502;19.148;2022-12-18T09:58:39;17.27;;;9.90;;
76978;SDS011;65911;47.502;19.148;2022-12-18T10:01:45;16.90;;;10.00;;
76978;SDS011;65911;47.502;19.148;2022-12-18T10:08:13;16.58;;;10.43;;
76978;SDS011;65911;47.502;19.148;2022-12-18T10:11:29;17.37;;;10.30;;
76978;SDS011;65911;47.502;19.148;2022-12-18T10:14:51;16.75;;;10.00;;
76978;SDS011;65911;47.502;19.148;2022-12-18T10:21:43;17.05;;;10.18;;
76978;SDS011;65911;47.502;19.148;2022-12-18T10:28:07;16.85;;;9.82;;
76978;SDS011;65911;47.502;19.148;2022-12-18T10:31:14;16.10;;;9.75;;
76978;SDS011;65911;47.502;19.148;2022-12-18T10:34:25;16.07;;;9.33;;
76978;SDS011;65911;47.502;19.148;2022-12-18T10:37:28;17.00;;;9.70;;
76978;SDS011;65911;47.502;19.148;2022-12-18T10:40:31;17.00;;;10.27;;
76978;SDS011;65911;47.502;19.148;2022-12-18T10:43:34;17.23;;;10.40;;
76978;SDS011;65911;47.502;19.148;2022-12-18T10:46:37;16.52;;;10.18;;
76978;SDS011;65911;47.502;19.148;2022-12-18T10:49:42;16.23;;;9.60;;
76978;SDS011;65911;47.502;19.148;2022-12-18T10:52:57;15.68;;;9.70;;
76978;SDS011;65911;47.502;19.148;2022-12-18T10:56:00;16.23;;;10.27;;
76978;SDS011;65911;47.502;19.148;2022-12-18T10:59:05;17.50;;;10.23;;
76978;SDS011;65911;47.502;19.148;2022-12-18T11:02:23;18.38;;;10.38;;
76978;SDS011;65911;47.502;19.148;2022-12-18T11:05:30;16.90;;;9.83;;
76978;SDS011;65911;47.502;19.148;2022-12-18T11:08:33;15.05;;;10.02;;
76978;SDS011;65911;47.502;19.148;2022-12-18T11:11:35;15.98;;;9.80;;
76978;SDS011;65911;47.502;19.148;2022-12-18T11:14:42;15.77;;;9.73;;
76978;SDS011;65911;47.502;19.148;2022-12-18T11:17:49;17.30;;;10.13;;
76978;SDS011;65911;47.502;19.148;2022-12-18T11:20:54;17.75;;;10.13;;
76978;SDS011;65911;47.502;19.148;2022-12-18T11:23:59;15.90;;;9.63;;
76978;SDS011;65911;47.502;19.148;2022-12-18T11:27:03;14.63;;;9.32;;
76978;SDS011;65911;47.502;19.148;2022-12-18T11:30:25;15.65;;;9.38;;
76978;SDS011;65911;47.502;19.148;2022-12-18T11:33:28;14.73;;;9.15;;
76978;SDS011;65911;47.502;19.148;2022-12-18T11:36:38;14.40;;;9.10;;
76978;SDS011;65911;47.502;19.148;2022-12-18T11:39:46;15.77;;;10.25;;
76978;SDS011;65911;47.502;19.148;2022-12-18T11:42:54;15.30;;;9.52;;
76978;SDS011;65911;47.502;19.148;2022-12-18T11:46:05;15.40;;;9.07;;
76978;SDS011;65911;47.502;19.148;2022-12-18T11:49:21;14.18;;;8.77;;
76978;SDS011;65911;47.502;19.148;2022-12-18T11:52:32;16.92;;;9.55;;
76978;SDS011;65911;47.502;19.148;2022-12-18T11:55:41;15.23;;;9.73;;
76978;SDS011;65911;47.502;19.148;2022-12-18T12:08:59;15.67;;;9.47;;
76978;SDS011;65911;47.502;19.148;2022-12-18T12:15:33;16.83;;;9.10;;
76978;SDS011;65911;47.502;19.148;2022-12-18T12:23:20;15.38;;;8.65;;
76978;SDS011;65911;47.502;19.148;2022-12-18T12:26:23;13.52;;;8.40;;
76978;SDS011;65911;47.502;19.148;2022-12-18T12:39:46;14.40;;;9.05;;
76978;SDS011;65911;47.502;19.148;2022-12-18T12:42:53;14.50;;;8.40;;
76978;SDS011;65911;47.502;19.148;2022-12-18T12:46:24;13.00;;;8.38;;
76978;SDS011;65911;47.502;19.148;2022-12-18T12:49:29;13.20;;;8.13;;
76978;SDS011;65911;47.502;19.148;2022-12-18T12:52:42;13.47;;;8.27;;
76978;SDS011;65911;47.502;19.148;2022-12-18T12:55:47;13.30;;;8.45;;
76978;SDS011;65911;47.502;19.148;2022-12-18T13:02:27;12.57;;;8.27;;
76978;SDS011;65911;47.502;19.148;2022-12-18T13:05:59;13.25;;;8.32;;
76978;SDS011;65911;47.502;19.148;2022-12-18T13:09:03;13.07;;;8.45;;
76978;SDS011;65911;47.502;19.148;2022-12-18T13:12:10;12.82;;;8.38;;
76978;SDS011;65911;47.502;19.148;2022-12-18T13:15:45;11.67;;;7.50;;
76978;SDS011;65911;47.502;19.148;2022-12-18T13:18:52;13.20;;;8.30;;
76978;SDS011;65911;47.502;19.148;2022-12-18T13:21:56;13.18;;;8.07;;
76978;SDS011;65911;47.502;19.148;2022-12-18T13:41:33;13.15;;;8.07;;
76978;SDS011;65911;47.502;19.148;2022-12-18T13:44:38;12.40;;;8.30;;
76978;SDS011;65911;47.502;19.148;2022-12-18T13:47:44;11.97;;;7.73;;
76978;SDS011;65911;47.502;19.148;2022-12-18T13:50:53;12.13;;;8.00;;
76978;SDS011;65911;47.502;19.148;2022-12-18T13:54:06;12.02;;;7.03;;
76978;SDS011;65911;47.502;19.148;2022-12-18T13:57:33;12.83;;;7.90;;
76978;SDS011;65911;47.502;19.148;2022-12-18T14:00:40;14.55;;;8.40;;
76978;SDS011;65911;47.502;19.148;2022-12-18T14:03:46;11.98;;;7.55;;
76978;SDS011;65911;47.502;19.148;2022-12-18T14:06:50;12.27;;;7.93;;
76978;SDS011;65911;47.502;19.148;2022-12-18T14:09:56;13.00;;;8.00;;
76978;SDS011;65911;47.502;19.148;2022-12-18T14:13:24;12.82;;;7.95;;
76978;SDS011;65911;47.502;19.148;2022-12-18T14:16:30;13.57;;;8.13;;
76978;SDS011;65911;47.502;19.148;2022-12-18T14:19:33;13.33;;;8.10;;
76978;SDS011;65911;47.502;19.148;2022-12-18T14:22:36;15.02;;;8.70;;
76978;SDS011;65911;47.502;19.148;2022-12-18T14:25:38;14.18;;;8.60;;
76978;SDS011;65911;47.502;19.148;2022-12-18T14:28:43;13.40;;;8.60;;
76978;SDS011;65911;47.502;19.148;2022-12-18T14:31:46;15.10;;;8.70;;
76978;SDS011;65911;47.502;19.148;2022-12-18T14:34:52;15.30;;;9.10;;
76978;SDS011;65911;47.502;19.148;2022-12-18T14:38:39;13.40;;;8.88;;
76978;SDS011;65911;47.502;19.148;2022-12-18T14:41:24;14.85;;;8.50;;
76978;SDS011;65911;47.502;19.148;2022-12-18T14:44:27;14.40;;;9.07;;
76978;SDS011;65911;47.502;19.148;2022-12-18T14:47:49;15.07;;;8.70;;
76978;SDS011;65911;47.502;19.148;2022-12-18T14:50:59;15.03;;;9.10;;
76978;SDS011;65911;47.502;19.148;2022-12-18T14:54:03;14.48;;;8.23;;
76978;SDS011;65911;47.502;19.148;2022-12-18T14:57:23;14.65;;;9.40;;
76978;SDS011;65911;47.502;19.148;2022-12-18T15:00:26;14.63;;;8.50;;
76978;SDS011;65911;47.502;19.148;2022-12-18T15:03:28;15.02;;;8.52;;
76978;SDS011;65911;47.502;19.148;2022-12-18T15:06:32;15.23;;;9.25;;
76978;SDS011;65911;47.502;19.148;2022-12-18T15:09:36;14.20;;;8.88;;
76978;SDS011;65911;47.502;19.148;2022-12-18T15:12:41;15.60;;;9.45;;
76978;SDS011;65911;47.502;19.148;2022-12-18T15:15:44;14.07;;;8.90;;
76978;SDS011;65911;47.502;19.148;2022-12-18T15:18:46;14.98;;;9.00;;
76978;SDS011;65911;47.502;19.148;2022-12-18T15:21:49;15.00;;;8.90;;
76978;SDS011;65911;47.502;19.148;2022-12-18T15:24:51;14.90;;;9.27;;
76978;SDS011;65911;47.502;19.148;2022-12-18T15:27:54;14.32;;;9.23;;
76978;SDS011;65911;47.502;19.148;2022-12-18T15:34:19;15.88;;;9.57;;
76978;SDS011;65911;47.502;19.148;2022-12-18T15:37:22;14.77;;;9.57;;
76978;SDS011;65911;47.502;19.148;2022-12-18T15:40:24;16.13;;;9.75;;
76978;SDS011;65911;47.502;19.148;2022-12-18T15:43:26;17.25;;;10.27;;
76978;SDS011;65911;47.502;19.148;2022-12-18T15:46:38;15.63;;;9.82;;
76978;SDS011;65911;47.502;19.148;2022-12-18T15:49:41;15.77;;;10.27;;
76978;SDS011;65911;47.502;19.148;2022-12-18T15:52:44;16.40;;;10.53;;
76978;SDS011;65911;47.502;19.148;2022-12-18T15:55:47;15.73;;;10.32;;
76978;SDS011;65911;47.502;19.148;2022-12-18T15:59:27;18.52;;;10.90;;
76978;SDS011;65911;47.502;19.148;2022-12-18T16:02:29;16.50;;;10.67;;
76978;SDS011;65911;47.502;19.148;2022-12-18T16:05:32;15.55;;;10.23;;
76978;SDS011;65911;47.502;19.148;2022-12-18T16:08:34;18.25;;;10.63;;
76978;SDS011;65911;47.502;19.148;2022-12-18T16:11:37;18.52;;;11.00;;
76978;SDS011;65911;47.502;19.148;2022-12-18T16:14:40;19.40;;;11.60;;
76978;SDS011;65911;47.502;19.148;2022-12-18T16:17:43;17.48;;;11.10;;
76978;SDS011;65911;47.502;19.148;2022-12-18T16:20:48;18.92;;;10.93;;
76978;SDS011;65911;47.502;19.148;2022-12-18T16:23:50;16.80;;;10.93;;
76978;SDS011;65911;47.502;19.148;2022-12-18T16:26:53;18.58;;;10.75;;
76978;SDS011;65911;47.502;19.148;2022-12-18T16:29:55;16.73;;;10.20;;
76978;SDS011;65911;47.502;19.148;2022-12-18T16:32:58;18.30;;;11.47;;
76978;SDS011;65911;47.502;19.148;2022-12-18T16:36:00;18.75;;;11.30;;
76978;SDS011;65911;47.502;19.148;2022-12-18T16:39:03;16.80;;;11.05;;
76978;SDS011;65911;47.502;19.148;2022-12-18T16:42:18;20.13;;;11.77;;
76978;SDS011;65911;47.502;19.148;2022-12-18T16:45:21;17.05;;;11.20;;
76978;SDS011;65911;47.502;19.148;2022-12-18T16:48:23;18.92;;;11.63;;
76978;SDS011;65911;47.502;19.148;2022-12-18T16:51:26;18.60;;;11.30;;
76978;SDS011;65911;47.502;19.148;2022-12-18T16:54:29;17.67;;;11.33;;
76978;SDS011;65911;47.502;19.148;2022-12-18T16:57:31;20.05;;;12.32;;
76978;SDS011;65911;47.502;19.148;2022-12-18T17:00:33;18.63;;;11.82;;
76978;SDS011;65911;47.502;19.148;2022-12-18T17:03:35;21.70;;;12.33;;
76978;SDS011;65911;47.502;19.148;2022-12-18T17:06:39;21.30;;;13.50;;
76978;SDS011;65911;47.502;19.148;2022-12-18T17:09:43;21.05;;;13.43;;
76978;SDS011;65911;47.502;19.148;2022-12-18T17:12:45;22.67;;;13.68;;
76978;SDS011;65911;47.502;19.148;2022-12-18T17:15:47;21.38;;;13.30;;
76978;SDS011;65911;47.502;19.148;2022-12-18T17:18:50;21.13;;;13.95;;
76978;SDS011;65911;47.502;19.148;2022-12-18T17:21:53;21.77;;;14.07;;
76978;SDS011;65911;47.502;19.148;2022-12-18T17:24:55;21.23;;;13.33;;
76978;SDS011;65911;47.502;19.148;2022-12-18T17:27:58;23.98;;;14.68;;
76978;SDS011;65911;47.502;19.148;2022-12-18T17:31:00;21.92;;;13.98;;
76978;SDS011;65911;47.502;19.148;2022-12-18T17:34:02;24.07;;;15.17;;
76978;SDS011;65911;47.502;19.148;2022-12-18T17:37:04;25.92;;;15.88;;
76978;SDS011;65911;47.502;19.148;2022-12-18T17:40:06;25.48;;;16.05;;
76978;SDS011;65911;47.502;19.148;2022-12-18T17:43:09;25.52;;;16.08;;
76978;SDS011;65911;47.502;19.148;2022-12-18T17:46:13;24.75;;;16.10;;
76978;SDS011;65911;47.502;19.148;2022-12-18T17:49:15;25.77;;;16.63;;
76978;SDS011;65911;47.502;19.148;2022-12-18T17:52:17;26.95;;;16.73;;
76978;SDS011;65911;47.502;19.148;2022-12-18T17:55:19;25.83;;;16.03;;
76978;SDS011;65911;47.502;19.148;2022-12-18T17:58:22;25.77;;;17.27;;
76978;SDS011;65911;47.502;19.148;2022-12-18T18:01:24;26.35;;;16.83;;
76978;SDS011;65911;47.502;19.148;2022-12-18T18:04:27;28.13;;;17.17;;
76978;SDS011;65911;47.502;19.148;2022-12-18T18:07:29;28.33;;;17.35;;
76978;SDS011;65911;47.502;19.148;2022-12-18T18:10:34;30.08;;;17.95;;
76978;SDS011;65911;47.502;19.148;2022-12-18T18:13:38;28.63;;;17.08;;
76978;SDS011;65911;47.502;19.148;2022-12-18T18:16:59;28.55;;;17.50;;
76978;SDS011;65911;47.502;19.148;2022-12-18T18:20:05;28.33;;;17.42;;
76978;SDS011;65911;47.502;19.148;2022-12-18T18:23:08;31.52;;;17.35;;
76978;SDS011;65911;47.502;19.148;2022-12-18T18:26:10;29.10;;;17.53;;
76978;SDS011;65911;47.502;19.148;2022-12-18T18:29:20;30.00;;;18.85;;
76978;SDS011;65911;47.502;19.148;2022-12-18T18:32:23;32.20;;;18.70;;
76978;SDS011;65911;47.502;19.148;2022-12-18T18:35:25;30.70;;;18.60;;
76978;SDS011;65911;47.502;19.148;2022-12-18T18:38:47;32.08;;;19.02;;
76978;SDS011;65911;47.502;19.148;2022-12-18T18:41:50;31.65;;;18.92;;
76978;SDS011;65911;47.502;19.148;2022-12-18T18:44:52;33.03;;;19.10;;
76978;SDS011;65911;47.502;19.148;2022-12-18T18:47:55;31.15;;;18.73;;
76978;SDS011;65911;47.502;19.148;2022-12-18T18:50:57;31.55;;;19.80;;
76978;SDS011;65911;47.502;19.148;2022-12-18T18:54:04;32.78;;;19.90;;
76978;SDS011;65911;47.502;19.148;2022-12-18T18:57:06;33.77;;;19.90;;
76978;SDS011;65911;47.502;19.148;2022-12-18T19:00:31;35.60;;;20.70;;
76978;SDS011;65911;47.502;19.148;2022-12-18T19:03:33;32.67;;;19.65;;
76978;SDS011;65911;47.502;19.148;2022-12-18T19:06:36;37.07;;;20.80;;
76978;SDS011;65911;47.502;19.148;2022-12-18T19:09:39;38.60;;;21.10;;
76978;SDS011;65911;47.502;19.148;2022-12-18T19:12:41;38.53;;;22.52;;
76978;SDS011;65911;47.502;19.148;2022-12-18T19:16:03;38.25;;;22.33;;